Latest Weather Observations for Tasman Island

IDT60801

Issued at 10:02 am EST Friday 29 July 2016 (issued every 30 minutes, with the page automatically refreshed every 10 minutes)

About weather observations | Map of weather stations | Latest weather observations for TAS | Other Formats
Station Details ID: 094155 Name: TASMAN ISLAND Lat: -43.24 Lon: 148.00 Height: 240.0 m
Data from the previous 72 hours. | See also: Recent months at Tasman Island
Date/Time
EST
Temp
°C
App
Temp
°C
Dew
Point
°C
Rel
Hum
%
Delta-T
°C
Wind Press
QNH
hPa
Press
MSL
hPa
Rain since
9am
mm
Dir  Spd
km/h
Gust
km/h
Spd
kts
Gust
kts
29/10:00am 10.3 3.3 4.2 66 2.8 WNW 30 46 16 25 1005.2 1005.5 0.0
29/09:30am 11.0 4.9 4.7 65 2.9 WNW 26 41 14 22 1005.3 1005.6 0.0
29/09:00am 10.1 3.3 5.3 72 2.2 WNW 30 41 16 22 1005.4 1005.7 0.0
29/08:30am 9.6 4.3 5.0 73 2.1 WNW 22 39 12 21 1005.5 1005.8 0.0
29/08:00am 9.4 4.4 4.6 72 2.2 WNW 20 43 11 23 1005.9 1006.2 0.0
29/07:30am 9.5 3.0 4.5 71 2.3 WNW 28 39 15 21 1005.9 1006.2 0.0
29/07:00am 9.4 2.0 4.0 69 2.4 WNW 32 46 17 25 1005.6 1006.0 0.0
29/06:39am 9.1 1.7 3.9 70 2.3 WNW 32 50 17 27 1005.6 1006.0 0.0
29/06:30am 9.0 1.4 3.8 70 2.3 WNW 33 50 18 27 1005.8 1006.1 0.0
29/06:00am 9.1 1.7 3.9 70 2.3 WNW 32 46 17 25 1005.8 1006.1 0.0
29/05:50am 9.1 2.1 3.9 70 2.3 WNW 30 52 16 28 1005.8 1006.1 0.0
29/05:30am 9.0 3.2 4.2 72 2.1 WNW 24 43 13 23 1005.9 1006.2 0.0
29/05:00am 9.0 4.8 4.0 71 2.2 WNW 15 41 8 22 1006.1 1006.4 0.0
29/04:30am 9.0 2.3 3.6 69 2.4 WNW 28 50 15 27 1006.2 1006.5 0.0
29/04:01am 9.0 1.9 3.4 68 2.4 WNW 30 48 16 26 1006.5 1006.8 0.0
29/04:00am 9.0 1.5 3.6 69 2.4 WNW 32 48 17 26 1006.5 1006.8 0.0
29/03:39am 9.1 2.4 3.7 69 2.4 NW 28 46 15 25 1006.6 1006.9 0.0
29/03:30am 9.0 3.4 3.6 69 2.4 NW 22 39 12 21 1006.7 1007.0 0.0
29/03:00am 9.1 2.8 3.7 69 2.4 WNW 26 46 14 25 1006.8 1007.1 0.0
29/02:39am 9.0 1.8 3.2 67 2.5 WNW 30 50 16 27 1007.3 1007.6 0.0
29/02:30am 9.1 1.0 3.3 67 2.5 WNW 35 50 19 27 1007.2 1007.5 0.0
29/02:12am 9.2 2.4 3.2 66 2.6 WNW 28 48 15 26 1007.5 1007.8 0.0
29/02:00am 9.1 2.7 3.3 67 2.5 WNW 26 41 14 22 1007.6 1007.9 0.0
29/01:30am 9.3 2.5 3.3 66 2.6 WNW 28 46 15 25 1007.9 1008.2 0.0
29/01:00am 9.2 2.3 2.8 64 2.8 WNW 28 41 15 22 1008.1 1008.4 0.0
29/12:30am 9.3 3.2 2.6 63 2.9 NW 24 41 13 22 1008.8 1009.1 0.0
29/12:00am 9.1 5.1 3.1 66 2.6 WNW 13 28 7 15 1008.7 1009.0 0.0
 
Date/Time
EST
Temp
°C
App
Temp
°C
Dew
Point
°C
Rel
Hum
%
Delta-T
°C
Wind Press
QNH
hPa
Press
MSL
hPa
Rain since
9am
mm
Dir  Spd
km/h
Gust
km/h
Spd
kts
Gust
kts
28/11:30pm 9.3 5.4 3.3 66 2.6 WNW 13 33 7 18 1008.8 1009.1 0.0
28/11:00pm 9.4 3.4 3.6 67 2.6 WNW 24 56 13 30 1009.1 1009.5 0.0
28/10:37pm 9.3 2.6 3.9 69 2.4 WNW 28 54 15 29 1009.1 1009.5 0.0
28/10:30pm 9.5 4.1 4.3 70 2.3 WNW 22 43 12 23 1009.1 1009.5 0.0
28/10:21pm 9.5 2.9 4.1 69 2.4 WNW 28 54 15 29 1009.1 1009.5 0.0
28/10:00pm 9.3 5.2 4.5 72 2.2 WNW 15 41 8 22 1009.4 1009.8 0.0
28/09:30pm 9.3 5.6 4.7 73 2.1 WNW 13 43 7 23 1009.4 1009.8 0.0
28/09:00pm 9.5 5.8 4.3 70 2.3 WNW 13 39 7 21 1009.1 1009.5 0.0
28/08:30pm 9.5 6.1 4.1 69 2.4 W 11 35 6 19 1009.2 1009.6 0.0
28/08:00pm 9.6 7.0 4.4 70 2.3 SE 7 26 4 14 1009.2 1009.6 0.0
28/07:30pm 9.6 5.8 4.0 68 2.5 WSW 13 50 7 27 1009.1 1009.5 0.0
28/07:00pm 9.8 6.0 4.0 67 2.6 NNW 13 43 7 23 1008.4 1008.7 0.0
28/06:30pm 9.7 5.1 3.9 67 2.6 NNW 17 65 9 35 1007.6 1007.9 0.0
28/06:00pm 9.9 6.5 4.1 67 2.6 ESE 11 35 6 19 1007.7 1008.0 0.0
28/05:30pm 10.1 6.4 4.3 67 2.6 NW 13 35 7 19 1007.8 1008.1 0.0
28/05:00pm 10.3 6.6 4.7 68 2.6 NNW 13 41 7 22 1007.4 1007.7 0.0
28/04:30pm 10.7 6.8 5.3 69 2.5 WNW 15 43 8 23 1006.5 1006.8 0.0
28/04:00pm 11.1 7.1 4.8 65 2.9 WNW 15 46 8 25 1005.3 1005.6 0.0
28/03:30pm 11.4 7.3 4.4 62 3.2 W 15 54 8 29 1005.2 1005.5 0.0
28/03:00pm 11.6 8.1 5.3 65 3.0 NW 13 43 7 23 1005.0 1005.3 0.0
28/02:30pm 11.7 7.9 5.6 66 2.9 SW 15 48 8 26 1004.7 1005.0 0.0
28/02:00pm 11.3 7.6 6.2 71 2.4 NNW 15 37 8 20 1004.8 1005.1 0.0
28/01:30pm 11.3 7.2 6.2 71 2.4 WNW 17 54 9 29 1004.4 1004.7 0.0
28/01:00pm 11.3 7.2 6.2 71 2.4 WNW 17 65 9 35 1004.5 1004.8 0.0
28/12:30pm 11.5 8.1 6.0 69 2.6 NW 13 54 7 29 1004.9 1005.2 0.0
28/12:00pm 11.5 8.2 6.6 72 2.4 NW 13 41 7 22 1005.2 1005.5 0.0
28/11:30am 10.9 8.0 6.3 73 2.2 NNW 11 48 6 26 1004.9 1005.2 0.0
28/11:00am 11.2 7.0 5.9 70 2.5 NW 17 54 9 29 1004.8 1005.1 0.0
28/10:30am 10.9 6.4 6.3 73 2.2 NW 19 69 10 37 1004.4 1004.7 0.0
28/10:00am 10.7 6.6 6.1 73 2.2 NNW 17 54 9 29 1004.1 1004.4 0.0
28/09:30am 10.6 6.1 6.0 73 2.2 NW 19 76 10 41 1003.7 1004.0 0.0
28/09:14am 10.5 5.4 6.1 74 2.1 NW 22 63 12 34 1003.7 1004.0 0.0
28/09:00am 10.6 6.1 6.0 73 2.2 NW 19 50 10 27 1003.8 1004.1 1.2
28/08:30am 10.3 6.5 5.7 73 2.1 W 15 69 8 37 1004.2 1004.5 1.2
28/08:00am 9.3 5.3 5.1 75 1.9 WNW 15 35 8 19 1004.9 1005.2 1.2
28/07:30am 9.1 5.4 4.7 74 2.0 W 13 50 7 27 1004.5 1004.8 1.2
28/07:00am 9.3 4.7 3.7 68 2.5 WSW 17 61 9 33 1004.8 1005.1 1.0
28/06:53am 9.4 4.8 3.8 68 2.5 WSW 17 61 9 33 1004.8 1005.1 1.0
28/06:30am 9.3 4.8 4.1 70 2.3 NNW 17 52 9 28 1004.2 1004.5 1.0
28/06:00am 9.3 4.7 3.5 67 2.6 WNW 17 57 9 31 1004.0 1004.3 1.0
28/05:30am 8.9 4.4 4.1 72 2.1 NW 17 54 9 29 1003.9 1004.2 1.0
28/05:00am 8.9 4.7 3.9 71 2.2 NW 15 57 8 31 1004.4 1004.7 1.0
28/04:30am 8.8 5.0 4.0 72 2.1 SW 13 46 7 25 1004.7 1005.0 1.0
28/04:00am 8.8 4.6 4.0 72 2.1 WNW 15 43 8 23 1005.3 1005.6 1.0
28/03:30am 8.9 5.4 3.7 70 2.3 NNE 11 39 6 21 1005.2 1005.5 1.0
28/03:00am 9.0 4.7 3.2 67 2.5 WNW 15 54 8 29 1005.2 1005.5 1.0
28/02:30am 8.9 4.7 3.7 70 2.3 NNW 15 56 8 30 1005.3 1005.6 1.0
28/02:00am 9.1 5.2 3.3 67 2.5 WNW 13 35 7 19 1005.2 1005.5 1.0
28/01:30am 9.2 4.7 2.3 62 2.9 NW 15 50 8 27 1004.7 1005.0 1.0
28/01:00am 9.2 4.8 2.5 63 2.9 NW 15 48 8 26 1003.9 1004.2 1.0
28/12:30am 9.2 4.2 1.6 59 3.2 N 17 50 9 27 1003.2 1003.5 1.0
28/12:00am 9.1 3.5 1.0 57 3.4 W 20 72 11 39 1002.3 1002.6 1.0
 
Date/Time
EST
Temp
°C
App
Temp
°C
Dew
Point
°C
Rel
Hum
%
Delta-T
°C
Wind Press
QNH
hPa
Press
MSL
hPa
Rain since
9am
mm
Dir  Spd
km/h
Gust
km/h
Spd
kts
Gust
kts
27/11:30pm 9.1 4.5 1.8 60 3.1 N 15 54 8 29 1002.6 1002.9 1.0
27/11:00pm 9.1 4.2 1.8 60 3.1 NW 17 63 9 34 1002.3 1002.6 1.0
27/10:30pm 9.1 4.7 2.7 64 2.8 WNW 15 50 8 27 1002.1 1002.3 1.0
27/10:00pm 9.1 4.2 2.2 62 3.0 W 17 54 9 29 1001.8 1002.0 1.0
27/09:30pm 9.1 3.4 2.7 64 2.8 W 22 63 12 34 1001.4 1001.6 1.0
27/09:00pm 8.8 3.6 2.4 64 2.7 WNW 19 54 10 29 1001.2 1001.5 1.0
27/08:30pm 8.6 0.8 2.6 66 2.6 WSW 33 74 18 40 1000.4 1000.7 1.0
27/08:13pm 8.5 1.9 2.3 65 2.6 WSW 26 91 14 49 999.5 999.8 1.0
27/08:00pm 8.3 2.9 4.7 78 1.6 W 22 57 12 31 1000.1 1000.4 1.0
27/07:30pm 7.0 3.1 5.5 90 0.7 SW 15 50 8 27 1000.3 1000.6 1.0
27/07:14pm 6.4 1.4 4.4 87 0.9 W 20 57 11 31 1000.3 1000.6 1.0
27/07:00pm 6.5 1.4 4.2 85 1.0 WSW 20 61 11 33 999.7 1000.0 0.6
27/06:57pm 6.8 1.8 4.5 85 1.0 SW 20 63 11 34 999.4 999.7 0.6
27/06:45pm 7.2 1.2 3.4 77 1.6 NW 24 69 13 37 998.6 998.8 0.0
27/06:30pm 7.6 2.0 3.5 75 1.8 WNW 22 85 12 46 996.5 996.8 0.0
27/06:27pm 7.9 1.6 3.6 74 1.9 WNW 26 85 14 46 996.4 996.7 0.0
27/06:18pm 8.1 -5.7 3.0 70 2.2 NW 65 111 35 60 996.6 996.9 0.0
27/06:00pm 7.8 -7.6 1.9 66 2.5 NW 72 100 39 54 997.1 997.3 0.0
27/05:47pm 7.6 -6.2 1.0 63 2.7 WNW 63 96 34 52 997.6 997.8 0.0
27/05:30pm 7.4 -3.6 0.6 62 2.7 WNW 48 76 26 41 998.2 998.4 0.0
27/05:12pm 7.5 -2.7 1.1 64 2.6 NW 44 78 24 42 998.4 998.6 0.0
27/05:02pm 7.4 -3.2 1.0 64 2.6 NW 46 69 25 37 998.7 999.0 0.0
27/05:00pm 7.3 -3.7 0.7 63 2.7 WNW 48 69 26 37 998.9 999.2 0.0
27/04:44pm 7.3 -5.3 0.1 60 2.9 NW 56 80 30 43 998.9 999.2 0.0
27/04:43pm 7.3 -5.3 0.1 60 2.9 NW 56 80 30 43 998.9 999.2 0.0
27/04:32pm 7.2 -3.0 0.0 60 2.8 NW 43 65 23 35 999.2 999.5 0.0
27/04:30pm 7.1 -2.2 0.3 62 2.7 NW 39 57 21 31 999.3 999.6 0.0
27/04:00pm 7.2 -1.9 -0.5 58 3.0 WNW 37 76 20 41 999.6 999.9 0.0
27/03:30pm 6.7 -2.2 0.6 65 2.4 WNW 37 59 20 32 1000.2 1000.5 0.0
27/03:00pm 6.6 -1.4 0.1 63 2.6 WNW 32 52 17 28 1000.9 1001.2 0.0
27/02:37pm 6.5 0.7 0.2 64 2.5 WNW 20 54 11 29 1000.8 1001.1 0.0
27/02:30pm 6.7 1.1 -0.1 62 2.7 WSW 19 61 10 33 1000.7 1001.0 0.0
27/02:00pm 6.4 1.6 0.5 66 2.4 WNW 15 37 8 20 1001.4 1001.6 0.0
27/01:30pm 6.0 0.3 0.6 68 2.1 WNW 20 54 11 29 1001.5 1001.7 0.0
27/01:00pm 6.2 1.9 0.7 68 2.2 NNW 13 50 7 27 1001.5 1001.7 0.0
27/12:30pm 6.3 0.8 0.4 66 2.3 NW 19 43 10 23 1001.6 1001.8 0.0
27/12:00pm 6.4 2.0 0.5 66 2.4 WNW 13 43 7 23 1001.4 1001.6 0.0
27/11:30am 5.6 1.3 1.3 74 1.7 WSW 13 39 7 21 1001.8 1002.0 0.0
27/11:00am 5.9 0.7 0.3 67 2.2 NNW 17 44 9 24 1001.9 1002.1 0.0
27/10:30am 5.7 1.0 0.7 70 2.0 NNW 15 46 8 25 1001.4 1001.6 0.0
27/10:00am 5.5 1.2 0.9 72 1.8 SSE 13 41 7 22 1001.4 1001.6 0.0
27/09:30am 5.2 0.1 0.6 72 1.8 NW 17 54 9 29 1001.1 1001.4 0.0
27/09:00am 5.3 1.0 0.9 73 1.8 NW 13 43 7 23 1000.6 1000.9 3.0
27/08:30am 5.0 0.4 1.3 77 1.5 N 15 52 8 28 1000.5 1000.8 3.0
27/08:00am 4.5 -1.7 2.0 84 1.0 WSW 24 70 13 38 1000.0 1000.3 3.0
27/07:39am 4.2 -2.2 1.2 81 1.2 W 24 80 13 43 999.6 999.9 2.6
27/07:38am 4.3 -1.3 1.3 81 1.2 WSW 20 50 11 27 999.7 1000.0 2.6
27/07:30am 4.8 -0.1 1.8 81 1.2 WNW 17 44 9 24 999.2 999.5 2.6
27/07:00am 4.6 0.8 1.6 81 1.2 NNE 11 33 6 18 998.8 999.1 2.4
27/06:30am 5.2 0.2 1.5 77 1.5 W 17 57 9 31 997.9 998.1 2.2
27/06:00am 3.9 -0.8 0.9 81 1.2 SSW 15 48 8 26 997.5 997.7 2.2
27/05:30am 5.1 -2.8 1.2 76 1.6 SW 32 74 17 40 996.8 997.1 1.8
27/05:17am 5.6 -1.5 1.2 73 1.8 SW 28 65 15 35 996.4 996.7 1.8
27/05:00am 4.9 -1.0 1.4 78 1.4 WSW 22 57 12 31 996.5 996.8 1.8
27/04:31am 5.0 -1.8 2.9 86 0.9 WSW 28 65 15 35 995.6 995.9 1.4
27/04:30am 5.0 -1.5 2.9 86 0.9 WSW 26 65 14 35 995.5 995.8 1.4
27/04:00am 4.0 -4.6 2.8 92 0.5 SW 37 74 20 40 995.2 995.5 1.4
27/03:35am 4.8 -2.0 3.3 90 0.6 SW 28 56 15 30 994.6 994.8 1.0
27/03:30am 4.7 -1.3 3.4 91 0.5 SW 24 52 13 28 994.5 994.7 0.8
27/03:07am 5.0 -0.1 3.3 89 0.7 SE 19 57 10 31 994.0 994.2 0.6
27/03:00am 5.4 0.2 3.6 88 0.8 SW 20 82 11 44 993.7 993.9 0.6
27/02:42am 6.1 0.6 3.8 85 1.0 WNW 22 70 12 38 993.2 993.4 0.4
27/02:30am 6.5 -3.2 2.9 78 1.5 NW 43 72 23 39 992.8 993.0 0.0
27/02:02am 7.0 -2.6 1.3 67 2.3 NW 41 61 22 33 992.2 992.5 0.0
27/02:00am 6.9 -2.3 1.2 67 2.3 NW 39 54 21 29 992.2 992.5 0.0
27/01:30am 7.0 -2.2 1.1 66 2.4 NW 39 63 21 34 992.7 992.9 0.0
27/01:01am 6.9 -2.0 1.0 66 2.4 NW 37 57 20 31 992.9 993.1 0.0
27/01:00am 6.7 -1.8 1.0 67 2.3 NW 35 52 19 28 992.8 993.0 0.0
27/12:30am 6.1 -1.9 0.4 67 2.3 NNW 32 50 17 27 993.4 993.6 0.0
27/12:02am 6.2 -0.3 0.5 67 2.3 NNW 24 57 13 31 993.7 993.9 0.0
27/12:00am 6.2 0.1 0.5 67 2.3 NNW 22 52 12 28 993.9 994.1 0.0
 
Date/Time
EST
Temp
°C
App
Temp
°C
Dew
Point
°C
Rel
Hum
%
Delta-T
°C
Wind Press
QNH
hPa
Press
MSL
hPa
Rain since
9am
mm
Dir  Spd
km/h
Gust
km/h
Spd
kts
Gust
kts
26/11:30pm 5.9 -2.3 0.5 68 2.1 NNW 33 52 18 28 994.1 994.3 0.0
26/11:00pm 5.9 -2.4 0.0 66 2.3 NNW 33 63 18 34 994.5 994.7 0.0
26/10:30pm 5.8 -2.9 -0.3 65 2.4 NNW 35 59 19 32 994.7 994.9 0.0
26/10:00pm 5.3 -3.3 0.3 70 2.0 NNW 35 56 19 30 995.4 995.7 0.0
26/09:30pm 5.7 -4.6 0.3 68 2.1 NNW 44 69 24 37 995.6 995.9 0.0
26/09:00pm 5.1 -5.0 0.3 71 1.9 NNW 43 65 23 35 995.8 996.1 0.0
26/08:38pm 5.3 -5.8 0.3 70 2.0 NW 48 69 26 37 996.0 996.3 0.0
26/08:30pm 5.3 -4.4 0.5 71 1.9 NW 41 65 22 35 996.1 996.4 0.0
26/08:06pm 4.8 -2.8 0.8 75 1.6 NNW 30 52 16 28 996.6 996.9 0.0
26/08:00pm 4.8 -3.1 0.8 75 1.6 NW 32 46 17 25 996.8 997.1 0.0
26/07:30pm 5.9 -3.9 0.0 66 2.3 NW 41 59 22 32 996.8 997.1 0.0
26/07:00pm 5.9 -4.9 -0.4 64 2.5 NW 46 69 25 37 996.5 996.8 0.0
26/06:39pm 5.6 -4.1 0.2 68 2.1 NW 41 61 22 33 996.8 997.1 0.0
26/06:30pm 5.8 -3.2 0.4 68 2.1 NW 37 52 20 28 997.1 997.3 0.0
26/06:03pm 5.9 -1.4 0.0 66 2.3 NW 28 50 15 27 997.4 997.6 0.0
26/06:00pm 5.9 -0.1 0.9 70 2.0 NW 22 48 12 26 997.5 997.7 0.0
26/05:30pm 5.9 -2.9 1.2 72 1.9 WNW 37 59 20 32 997.2 997.4 0.0
26/05:03pm 5.9 0.5 1.2 72 1.9 WNW 19 56 10 30 997.4 997.6 0.0
26/05:00pm 6.2 1.6 1.7 73 1.9 WNW 15 46 8 25 997.5 997.7 0.0
26/04:52pm 6.1 0.7 1.2 71 2.0 WNW 19 48 10 26 997.5 997.7 0.0
26/04:30pm 6.3 -2.6 0.8 68 2.2 NW 37 61 20 33 997.3 997.5 0.0
26/04:07pm 6.9 -0.3 0.6 64 2.5 WNW 28 54 15 29 997.4 997.6 0.0
26/04:00pm 7.1 1.4 0.5 63 2.7 WNW 20 48 11 26 997.3 997.5 0.0
26/03:30pm 7.3 2.3 1.4 66 2.4 WNW 17 39 9 21 997.2 997.4 0.0
26/03:00pm 6.8 1.2 1.1 67 2.3 WNW 20 50 11 27 996.6 996.9 0.0
26/02:30pm 6.7 1.3 1.0 67 2.3 WNW 19 54 10 29 996.1 996.4 0.0
26/02:06pm 6.7 1.6 1.0 67 2.3 W 17 67 9 36 995.8 996.1 0.0
26/02:00pm 7.2 2.2 1.1 65 2.5 WNW 17 50 9 27 995.7 996.0 0.0
26/01:56pm 7.1 2.0 1.0 65 2.5 WNW 17 50 9 27 995.5 995.8 0.0
26/01:30pm 7.0 1.9 0.9 65 2.5 WNW 17 63 9 34 995.3 995.6 0.0
26/01:00pm 6.7 2.4 0.8 66 2.4 WNW 13 48 7 26 995.7 996.0 0.0
26/12:30pm 6.9 2.2 0.6 64 2.5 SSE 15 48 8 26 995.2 995.5 0.0
26/12:00pm 7.2 3.0 1.5 67 2.4 NW 13 48 7 26 995.2 995.5 0.0
26/11:30am 6.4 2.1 0.9 68 2.2 WSW 13 43 7 23 995.3 995.6 0.0
26/11:00am 5.8 -0.7 0.6 69 2.1 WNW 24 54 13 29 995.3 995.6 0.0
26/10:52am 5.7 -1.5 0.5 69 2.1 WNW 28 70 15 38 995.4 995.7 0.0
26/10:30am 5.6 -3.2 1.3 74 1.7 WNW 37 74 20 40 994.9 995.1 0.0
26/10:09am 5.1 -6.2 1.0 75 1.6 NW 50 89 27 48 994.8 995.0 0.0

Other Formats:

Comma delimited format used in spreadsheet applications
http://www.bom.gov.au/fwo/IDT60801/IDT60801.95986.axf

JavaScript Object Notation format (JSON) in row-major order
http://www.bom.gov.au/fwo/IDT60801/IDT60801.95986.json